createdAt,value
2022-08-17T00:01:51.945Z,6.53
2022-08-17T00:04:21.064Z,6.15
2022-08-17T00:06:49.667Z,6.10
2022-08-17T00:09:19.069Z,5.88
2022-08-17T00:12:35.054Z,6.22
2022-08-17T00:14:36.760Z,6.30
2022-08-17T00:17:06.516Z,6.10
2022-08-17T00:19:34.131Z,6.47
2022-08-17T00:22:31.864Z,6.20
2022-08-17T00:24:50.589Z,6.05
2022-08-17T00:27:18.433Z,6.13
2022-08-17T00:29:45.895Z,6.10
2022-08-17T00:33:15.478Z,5.70
2022-08-17T00:35:08.438Z,5.80
2022-08-17T00:37:35.329Z,6.10
2022-08-17T00:40:02.692Z,5.82
2022-08-17T00:42:31.234Z,5.50
2022-08-17T00:44:59.349Z,5.82
2022-08-17T00:47:26.607Z,5.97
2022-08-17T00:49:54.032Z,6.05
2022-08-17T00:52:25.010Z,6.15
2022-08-17T00:54:54.773Z,6.13
2022-08-17T00:57:38.015Z,5.35
2022-08-17T01:00:37.384Z,6.20
2022-08-17T01:03:09.963Z,6.22
2022-08-17T01:05:53.599Z,6.35
2022-08-17T01:09:31.126Z,6.65
2022-08-17T01:12:24.391Z,6.60
2022-08-17T01:15:02.518Z,6.10
2022-08-17T01:18:03.476Z,6.35
2022-08-17T01:24:34.317Z,6.03
2022-08-17T01:28:55.030Z,6.03
2022-08-17T01:32:49.270Z,6.63
2022-08-17T01:44:23.928Z,6.45
2022-08-17T01:54:28.388Z,5.95
2022-08-17T01:56:57.545Z,5.95
2022-08-17T01:59:24.842Z,6.03
2022-08-17T02:01:52.847Z,6.10
2022-08-17T02:04:19.618Z,5.90
2022-08-17T02:06:54.132Z,6.20
2022-08-17T02:09:29.566Z,6.13
2022-08-17T02:11:58.741Z,6.43
2022-08-17T02:14:26.636Z,6.05
2022-08-17T02:16:53.895Z,6.00
2022-08-17T02:19:21.825Z,5.78
2022-08-17T02:21:50.476Z,5.30
2022-08-17T02:24:59.674Z,5.70
2022-08-17T02:27:12.771Z,7.00
2022-08-17T02:29:39.505Z,5.80
2022-08-17T02:32:06.603Z,5.95
2022-08-17T02:34:39.532Z,5.50
2022-08-17T03:02:17.560Z,6.07
2022-08-17T03:08:13.199Z,6.00
2022-08-17T03:14:41.871Z,6.28
2022-08-17T03:17:10.024Z,6.35
2022-08-17T03:19:37.614Z,5.75
2022-08-17T03:22:35.939Z,5.88
2022-08-17T03:27:23.633Z,6.15
2022-08-17T03:29:50.434Z,6.00
2022-08-17T03:32:17.618Z,6.38
2022-08-17T03:34:44.649Z,5.85
2022-08-17T03:37:16.239Z,6.13
2022-08-17T03:39:43.425Z,6.63
2022-08-17T03:42:32.584Z,6.40
2022-08-17T03:45:01.879Z,5.20
2022-08-17T03:47:47.450Z,5.93
2022-08-17T03:50:38.217Z,5.38
2022-08-17T03:53:33.227Z,5.57
2022-08-17T03:56:22.836Z,5.20
2022-08-17T03:58:49.930Z,5.93
2022-08-17T04:01:17.921Z,6.25
2022-08-17T04:03:44.726Z,5.90
2022-08-17T04:06:11.458Z,5.45
2022-08-17T04:08:38.280Z,5.13
2022-08-17T04:11:05.129Z,5.18
2022-08-17T04:13:31.897Z,5.40
2022-08-17T04:15:59.886Z,5.93
2022-08-17T04:18:26.760Z,5.40
2022-08-17T04:20:53.711Z,5.13
2022-08-17T04:23:20.566Z,5.50
2022-08-17T04:25:52.397Z,4.85
2022-08-17T04:28:19.870Z,5.38
2022-08-17T04:30:47.442Z,5.70
2022-08-17T04:33:20.618Z,5.15
2022-08-17T04:35:53.918Z,4.80
2022-08-17T04:38:24.371Z,5.38
2022-08-17T04:41:10.763Z,5.72
2022-08-17T04:43:39.646Z,5.35
2022-08-17T04:46:12.711Z,5.60
2022-08-17T04:48:45.833Z,5.45
2022-08-17T04:51:33.739Z,4.80
2022-08-17T04:54:04.313Z,5.07
2022-08-17T04:56:32.487Z,4.88
2022-08-17T04:59:04.921Z,5.15
2022-08-17T05:01:35.045Z,4.68
2022-08-17T05:04:33.506Z,4.93
2022-08-17T05:06:56.857Z,4.88
2022-08-17T05:09:23.608Z,5.00
2022-08-17T05:11:51.299Z,4.95
2022-08-17T05:14:18.013Z,4.78
2022-08-17T05:16:45.791Z,5.40
2022-08-17T05:19:12.611Z,4.95
2022-08-17T05:21:39.379Z,5.65
2022-08-17T05:24:16.723Z,5.20
2022-08-17T05:29:20.669Z,5.03
2022-08-17T05:31:47.362Z,4.40
2022-08-17T05:34:14.138Z,5.00
2022-08-17T05:36:43.247Z,4.68
2022-08-17T05:39:17.111Z,4.63
2022-08-17T05:41:45.974Z,4.10
2022-08-17T05:44:12.741Z,4.43
2022-08-17T05:46:43.406Z,4.13
2022-08-17T05:49:11.279Z,4.05
2022-08-17T05:52:03.846Z,4.15
2022-08-17T05:54:52.368Z,4.28
2022-08-17T05:57:39.955Z,4.15
2022-08-17T06:00:46.369Z,4.85
2022-08-17T06:03:42.659Z,3.90
2022-08-17T06:06:21.357Z,4.53
2022-08-17T06:09:13.662Z,4.40
2022-08-17T06:12:00.098Z,4.45
2022-08-17T06:14:59.903Z,4.40
2022-08-17T06:17:28.537Z,4.20
2022-08-17T06:19:59.673Z,4.53
2022-08-17T06:22:34.489Z,4.45
2022-08-17T06:25:23.222Z,4.80
2022-08-17T06:28:01.658Z,4.90
2022-08-17T06:30:58.571Z,4.68
2022-08-17T06:33:30.365Z,4.32
2022-08-17T06:36:16.063Z,4.13
2022-08-17T06:39:21.486Z,3.70
2022-08-17T06:41:54.271Z,3.92
2022-08-17T06:44:44.780Z,3.50
2022-08-17T06:50:07.660Z,3.45
2022-08-17T06:52:47.233Z,3.40
2022-08-17T06:55:26.271Z,3.10
2022-08-17T06:57:58.505Z,3.30
2022-08-17T07:00:33.512Z,3.22
2022-08-17T07:03:32.051Z,2.70
2022-08-17T07:06:05.523Z,3.03
2022-08-17T07:08:52.966Z,2.75
2022-08-17T07:11:30.094Z,3.20
2022-08-17T07:14:18.971Z,2.47
2022-08-17T07:16:51.558Z,2.70
2022-08-17T07:19:22.575Z,2.30
2022-08-17T07:22:20.556Z,2.20
2022-08-17T07:24:53.469Z,2.33
2022-08-17T07:27:31.148Z,2.17
2022-08-17T07:30:10.871Z,2.00
2022-08-17T07:32:40.149Z,1.95
2022-08-17T07:35:11.602Z,1.80
2022-08-17T07:37:41.641Z,1.88
2022-08-17T07:40:26.429Z,1.60
2022-08-17T07:43:29.413Z,1.80
2022-08-17T07:46:14.848Z,2.17
2022-08-17T07:48:45.242Z,2.45
2022-08-17T07:51:31.749Z,2.22
2022-08-17T07:54:13.920Z,2.15
2022-08-17T07:56:56.335Z,2.67
2022-08-17T07:59:24.544Z,2.35
2022-08-17T08:01:58.101Z,2.05
2022-08-17T08:07:51.149Z,1.88
2022-08-17T08:10:35.521Z,2.63
2022-08-17T08:13:20.746Z,2.25
2022-08-17T08:15:54.618Z,2.25
2022-08-17T08:18:55.419Z,2.30
2022-08-17T08:21:42.027Z,2.05
2022-08-17T08:24:36.652Z,2.40
2022-08-17T08:27:34.723Z,2.70
2022-08-17T08:30:14.739Z,2.20
2022-08-17T08:33:01.438Z,2.50
2022-08-17T08:35:49.575Z,2.60
2022-08-17T08:38:34.486Z,2.50
2022-08-17T08:41:10.487Z,2.65
2022-08-17T08:44:03.634Z,2.88
2022-08-17T08:47:20.898Z,2.40
2022-08-17T08:52:32.285Z,2.58
2022-08-17T08:55:15.526Z,2.60
2022-08-17T08:58:31.691Z,3.13
2022-08-17T09:01:17.337Z,2.88
2022-08-17T09:04:19.992Z,2.63
2022-08-17T09:09:27.428Z,2.70
2022-08-17T09:12:18.874Z,3.38
2022-08-17T09:15:01.473Z,2.60
2022-08-17T09:21:10.091Z,2.83
2022-08-17T09:24:04.728Z,2.50
2022-08-17T09:26:43.044Z,2.78
2022-08-17T09:29:16.226Z,2.63
2022-08-17T09:32:03.540Z,2.95
2022-08-17T09:34:57.237Z,2.90
2022-08-17T09:37:35.837Z,3.00
2022-08-17T09:40:23.028Z,3.03
2022-08-17T09:43:22.053Z,2.58
2022-08-17T09:45:57.269Z,2.95
2022-08-17T09:48:37.378Z,2.90
2022-08-17T09:51:08.945Z,2.80
2022-08-17T09:53:39.363Z,3.20
2022-08-17T09:56:27.728Z,3.15
2022-08-17T09:59:17.195Z,3.22
2022-08-17T10:02:05.705Z,2.72
2022-08-17T10:05:16.293Z,2.90
2022-08-17T10:08:09.502Z,3.15
2022-08-17T10:10:52.245Z,3.90
2022-08-17T10:13:52.812Z,2.95
2022-08-17T10:16:31.992Z,2.80
2022-08-17T10:19:35.932Z,2.83
2022-08-17T10:22:35.023Z,2.78
2022-08-17T10:25:42.629Z,2.83
2022-08-17T10:28:22.816Z,3.30
2022-08-17T10:31:23.307Z,2.80
2022-08-17T10:34:20.217Z,3.10
2022-08-17T10:37:25.039Z,2.85
2022-08-17T10:40:16.139Z,3.15
2022-08-17T10:42:57.721Z,3.10
2022-08-17T10:49:33.661Z,2.80
2022-08-17T10:52:24.989Z,3.30
2022-08-17T10:54:58.748Z,3.17
2022-08-17T10:57:40.694Z,3.25
2022-08-17T11:00:27.550Z,2.90
2022-08-17T11:03:57.263Z,3.00
2022-08-17T11:06:35.089Z,3.17
2022-08-17T11:09:22.907Z,3.13
2022-08-17T11:12:26.552Z,3.25
2022-08-17T11:15:11.852Z,3.58
2022-08-17T11:18:01.926Z,3.40
2022-08-17T11:21:05.719Z,2.92
2022-08-17T11:23:44.914Z,3.33
2022-08-17T11:34:27.463Z,3.38
2022-08-17T11:37:44.275Z,3.35
2022-08-17T11:44:58.958Z,3.13
2022-08-17T12:06:08.839Z,3.13
2022-08-17T12:15:05.951Z,3.10
2022-08-17T12:33:55.024Z,3.20
2022-08-17T12:36:28.924Z,3.15
2022-08-17T12:39:14.513Z,2.80
2022-08-17T12:46:21.702Z,3.10
2022-08-17T12:57:36.428Z,2.75
2022-08-17T13:01:16.747Z,3.08
2022-08-17T13:07:47.431Z,2.80
2022-08-17T13:10:37.002Z,2.75
2022-08-17T13:17:34.921Z,2.83
2022-08-17T13:20:03.305Z,2.95
2022-08-17T13:22:37.816Z,2.83
2022-08-17T13:25:08.643Z,2.72
2022-08-17T13:27:36.321Z,3.10
2022-08-17T13:30:16.821Z,2.70
2022-08-17T13:32:53.869Z,3.08
2022-08-17T13:35:52.486Z,2.97
2022-08-17T13:38:51.450Z,3.15
2022-08-17T13:41:36.952Z,3.42
2022-08-17T13:44:40.871Z,3.20
2022-08-17T14:20:07.644Z,2.58
2022-08-17T14:22:39.636Z,2.50
2022-08-17T14:25:32.120Z,2.63
2022-08-17T14:28:10.953Z,2.90
2022-08-17T14:31:23.694Z,2.40
2022-08-17T14:34:04.755Z,2.83
2022-08-17T14:36:33.881Z,2.60
2022-08-17T14:39:02.525Z,2.47
2022-08-17T14:41:39.815Z,2.92
2022-08-17T14:47:19.481Z,2.90
2022-08-17T14:50:27.288Z,3.05
2022-08-17T14:53:06.214Z,2.88
2022-08-17T14:55:50.057Z,3.15
2022-08-17T14:58:36.510Z,2.60
2022-08-17T15:01:13.924Z,2.92
2022-08-17T15:03:50.413Z,2.78
2022-08-17T15:06:25.007Z,2.67
2022-08-17T15:09:04.336Z,3.00
2022-08-17T15:11:54.711Z,2.80
2022-08-17T15:14:32.461Z,3.30
2022-08-17T15:17:04.275Z,3.20
2022-08-17T15:19:36.393Z,2.97
2022-08-17T15:44:39.634Z,3.17
2022-08-17T15:47:23.681Z,2.55
2022-08-17T15:50:18.374Z,2.67
2022-08-17T15:52:58.221Z,3.15
2022-08-17T15:55:28.547Z,2.75
2022-08-17T15:57:56.616Z,2.67
2022-08-17T16:00:25.603Z,2.90
2022-08-17T16:03:20.307Z,2.97
2022-08-17T16:05:54.011Z,3.55
2022-08-17T16:08:28.632Z,5.20
2022-08-17T16:11:20.669Z,4.05
2022-08-17T16:13:54.675Z,2.97
2022-08-17T16:16:38.725Z,2.88
2022-08-17T16:19:24.925Z,3.42
2022-08-17T16:21:58.280Z,2.90
2022-08-17T16:24:47.359Z,3.03
2022-08-17T16:28:04.118Z,3.10
2022-08-17T16:30:34.836Z,2.50
2022-08-17T16:34:09.019Z,2.75
2022-08-17T16:36:50.551Z,3.20
2022-08-17T16:39:27.179Z,3.00
2022-08-17T16:41:57.241Z,2.45
2022-08-17T16:44:31.949Z,5.00
2022-08-17T16:47:01.316Z,3.55
2022-08-17T16:49:36.874Z,7.95
2022-08-17T16:53:11.197Z,3.80
2022-08-17T16:58:55.818Z,4.40
2022-08-17T17:02:18.141Z,3.53
2022-08-17T17:05:26.410Z,2.92
2022-08-17T17:11:28.666Z,3.00
2022-08-17T17:14:03.713Z,3.70
2022-08-17T17:16:55.596Z,3.17
2022-08-17T17:19:38.895Z,3.15
2022-08-17T17:22:36.330Z,3.53
2022-08-17T17:25:15.333Z,3.05
2022-08-17T17:28:34.636Z,3.13
2022-08-17T17:31:40.070Z,3.10
2022-08-17T17:34:16.386Z,2.90
2022-08-17T17:37:28.527Z,3.00
2022-08-17T17:40:09.505Z,2.55
2022-08-17T17:42:40.461Z,2.92
2022-08-17T17:45:17.056Z,2.70
2022-08-17T17:47:52.692Z,2.50
2022-08-17T17:50:43.042Z,3.35
2022-08-17T17:53:43.084Z,2.47
2022-08-17T17:56:43.286Z,2.85
2022-08-17T17:59:29.259Z,3.70
2022-08-17T18:02:36.071Z,3.42
2022-08-17T18:05:16.266Z,3.25
2022-08-17T18:27:23.384Z,3.90
2022-08-17T18:30:28.955Z,2.83
2022-08-17T18:33:47.888Z,2.97
2022-08-17T18:37:16.104Z,2.80
2022-08-17T18:40:35.078Z,3.20
2022-08-17T18:43:53.256Z,3.38
2022-08-17T18:50:38.650Z,3.65
2022-08-17T18:54:13.960Z,3.40
2022-08-17T18:57:36.039Z,3.38
2022-08-17T19:01:58.866Z,3.28
2022-08-17T19:09:14.565Z,3.38
2022-08-17T19:13:24.125Z,3.65
2022-08-17T19:28:30.836Z,3.55
2022-08-17T19:41:15.138Z,4.13
2022-08-17T19:44:59.210Z,4.28
2022-08-17T19:47:54.164Z,3.67
2022-08-17T19:50:55.870Z,4.60
2022-08-17T19:58:52.939Z,4.07
2022-08-17T20:02:36.488Z,3.83
2022-08-17T20:09:42.919Z,3.50
2022-08-17T20:33:29.156Z,3.53
2022-08-17T20:52:44.816Z,3.55
2022-08-17T20:56:01.258Z,4.28
2022-08-17T21:08:43.743Z,4.60
2022-08-17T21:12:05.259Z,4.80
2022-08-17T21:18:38.945Z,4.05
2022-08-17T21:21:31.944Z,3.88
2022-08-17T21:24:45.409Z,4.00
2022-08-17T21:27:35.706Z,3.50
2022-08-17T21:30:59.897Z,3.90
2022-08-17T21:34:12.754Z,4.05
2022-08-17T21:42:32.864Z,4.10
2022-08-17T21:57:05.054Z,4.20
2022-08-17T21:59:55.593Z,3.77
2022-08-17T22:03:16.668Z,3.60
2022-08-17T22:06:55.797Z,3.90
2022-08-17T22:17:57.492Z,4.28
2022-08-17T22:40:30.789Z,6.38
2022-08-17T23:15:34.869Z,9.55
2022-08-17T23:19:30.057Z,8.90
2022-08-17T23:34:40.442Z,9.70
2022-08-17T23:37:18.594Z,10.02
2022-08-17T23:40:02.327Z,9.82
2022-08-17T23:43:24.776Z,10.48
2022-08-17T23:46:14.349Z,9.60
2022-08-17T23:49:27.217Z,9.18
2022-08-17T23:59:13.410Z,9.95
